Terminal Aerodrome Forecast
Issued by NWS

Home | Current Version | Previous Version | Text Only | Print | Product List | Glossary Off
Versions: 1 2 3 4 5 6 7 8 9 10 11 12 13 14 15

000
FTUS43 KABR 281731
TAFMBG
TAF
KMBG 281731Z 2818/2918 27024G33KT P6SM SKC
     FM282100 28030G45KT P6SM BKN045
     FM290300 28012KT P6SM SKC
     FM291500 29024G33KT P6SM SKC=

USA.gov is the U.S. government's official web portal to all federal, state and local government web resources and services.